createdAt,value
2018-02-18T00:01:41.085Z,37.63
2018-02-18T00:04:09.440Z,38.17
2018-02-18T00:06:37.019Z,37.22
2018-02-18T00:09:05.393Z,37.40
2018-02-18T00:11:32.979Z,36.60
2018-02-18T00:14:00.555Z,36.60
2018-02-18T00:16:28.236Z,36.70
2018-02-18T00:18:55.795Z,37.58
2018-02-18T00:21:23.379Z,36.00
2018-02-18T00:23:50.975Z,36.27
2018-02-18T00:26:22.687Z,36.53
2018-02-18T00:28:50.300Z,32.78
2018-02-18T00:31:17.896Z,33.47
2018-02-18T00:33:45.495Z,34.55
2018-02-18T00:36:13.080Z,34.25
2018-02-18T00:38:40.720Z,34.60
2018-02-18T00:41:08.305Z,32.17
2018-02-18T00:43:35.891Z,32.50
2018-02-18T00:46:03.504Z,33.10
2018-02-18T00:48:31.883Z,34.03
2018-02-18T00:50:59.491Z,32.05
2018-02-18T00:53:27.066Z,30.70
2018-02-18T00:55:54.623Z,32.80
2018-02-18T00:58:22.217Z,30.40
2018-02-18T01:00:49.829Z,30.58
2018-02-18T01:03:17.436Z,31.33
2018-02-18T01:05:45.017Z,33.60
2018-02-18T01:08:13.356Z,32.60
2018-02-18T01:10:41.708Z,33.65
2018-02-18T01:13:09.321Z,32.47
2018-02-18T01:15:36.910Z,37.60
2018-02-18T01:18:05.257Z,32.95
2018-02-18T01:20:32.848Z,33.63
2018-02-18T01:23:00.444Z,33.25
2018-02-18T01:25:28.008Z,32.33
2018-02-18T01:27:55.604Z,32.20
2018-02-18T01:30:23.177Z,29.50
2018-02-18T01:32:50.739Z,29.15
2018-02-18T01:35:19.087Z,31.23
2018-02-18T01:37:46.651Z,31.23
2018-02-18T01:40:14.239Z,30.98
2018-02-18T01:42:41.790Z,32.60
2018-02-18T01:45:09.355Z,33.20
2018-02-18T01:47:36.940Z,33.00
2018-02-18T01:53:06.126Z,33.28
2018-02-18T01:55:33.679Z,33.53
2018-02-18T01:58:01.254Z,34.75
2018-02-18T02:00:28.841Z,36.75
2018-02-18T02:02:56.430Z,35.60
2018-02-18T02:05:24.011Z,35.85
2018-02-18T02:07:51.573Z,40.03
2018-02-18T02:10:19.136Z,39.63
2018-02-18T02:12:46.716Z,40.72
2018-02-18T02:15:14.268Z,42.53
2018-02-18T02:17:41.867Z,40.53
2018-02-18T02:20:09.442Z,37.00
2018-02-18T02:22:37.037Z,37.92
2018-02-18T02:25:04.625Z,37.72
2018-02-18T02:27:32.972Z,38.00
2018-02-18T02:30:00.632Z,35.28
2018-02-18T02:32:28.203Z,35.83
2018-02-18T02:34:55.759Z,35.65
2018-02-18T02:37:23.362Z,32.88
2018-02-18T02:39:50.927Z,32.90
2018-02-18T02:42:18.512Z,32.20
2018-02-18T02:44:46.071Z,30.17
2018-02-18T02:47:13.663Z,31.85
2018-02-18T02:49:41.268Z,30.33
2018-02-18T02:52:09.600Z,32.58
2018-02-18T02:54:37.166Z,33.20
2018-02-18T02:57:04.769Z,33.20
2018-02-18T02:59:32.373Z,32.25
2018-02-18T03:01:59.996Z,31.23
2018-02-18T03:04:28.320Z,33.80
2018-02-18T03:06:56.656Z,31.73
2018-02-18T03:09:24.568Z,32.58
2018-02-18T03:11:52.130Z,34.20
2018-02-18T03:14:20.619Z,32.35
2018-02-18T03:16:48.183Z,32.60
2018-02-18T03:19:15.740Z,29.50
2018-02-18T03:21:43.330Z,33.33
2018-02-18T03:24:11.673Z,31.73
2018-02-18T03:26:39.280Z,30.35
2018-02-18T03:29:07.613Z,29.48
2018-02-18T03:31:35.172Z,28.75
2018-02-18T03:34:02.796Z,30.65
2018-02-18T03:36:30.364Z,32.80
2018-02-18T03:38:57.980Z,31.90
2018-02-18T03:41:25.540Z,32.07
2018-02-18T03:43:53.865Z,30.10
2018-02-18T03:46:21.476Z,30.58
2018-02-18T03:48:49.054Z,30.77
2018-02-18T03:51:17.419Z,30.48
2018-02-18T03:53:44.987Z,31.08
2018-02-18T03:56:13.320Z,34.95
2018-02-18T03:58:40.910Z,34.00
2018-02-18T04:01:08.479Z,32.90
2018-02-18T04:03:36.063Z,34.23
2018-02-18T04:06:04.321Z,35.53
2018-02-18T04:08:32.650Z,36.10
2018-02-18T04:11:00.234Z,36.35
2018-02-18T04:13:27.803Z,36.50
2018-02-18T04:15:55.394Z,35.90
2018-02-18T04:18:23.717Z,35.75
2018-02-18T04:20:51.275Z,34.20
2018-02-18T04:23:18.863Z,37.00
2018-02-18T04:25:46.433Z,38.38
2018-02-18T04:28:14.045Z,35.75
2018-02-18T04:30:41.619Z,36.58
2018-02-18T04:33:09.209Z,35.50
2018-02-18T04:35:36.790Z,33.20
2018-02-18T04:38:05.115Z,36.50
2018-02-18T04:40:32.777Z,35.57
2018-02-18T04:43:00.356Z,35.97
2018-02-18T04:45:27.914Z,36.35
2018-02-18T04:47:55.504Z,34.53
2018-02-18T04:50:23.839Z,35.63
2018-02-18T04:52:51.433Z,31.85
2018-02-18T04:55:19.031Z,33.30
2018-02-18T04:57:46.612Z,33.22
2018-02-18T05:00:14.194Z,31.00
2018-02-18T05:02:41.756Z,35.80
2018-02-18T05:05:09.368Z,33.13
2018-02-18T05:07:36.931Z,34.35
2018-02-18T05:10:04.509Z,34.47
2018-02-18T05:12:32.101Z,34.97
2018-02-18T05:14:59.714Z,34.58
2018-02-18T05:17:28.066Z,36.57
2018-02-18T05:19:55.622Z,36.37
2018-02-18T05:22:23.195Z,34.80
2018-02-18T05:24:51.552Z,33.28
2018-02-18T05:27:19.125Z,35.35
2018-02-18T05:29:47.503Z,33.70
2018-02-18T05:32:15.080Z,33.03
2018-02-18T05:34:43.420Z,34.90
2018-02-18T05:37:11.012Z,33.80
2018-02-18T05:39:39.352Z,30.60
2018-02-18T05:42:06.943Z,33.60
2018-02-18T05:44:35.467Z,33.03
2018-02-18T05:47:03.026Z,32.77
2018-02-18T05:49:30.624Z,34.90
2018-02-18T05:51:58.184Z,33.53
2018-02-18T05:54:25.863Z,35.03
2018-02-18T05:56:53.447Z,35.30
2018-02-18T05:59:21.787Z,34.78
2018-02-18T06:01:50.134Z,33.30
2018-02-18T06:04:18.648Z,35.28
2018-02-18T06:06:46.279Z,34.58
2018-02-18T06:09:13.873Z,35.07
2018-02-18T06:11:41.459Z,34.60
2018-02-18T06:14:09.818Z,33.55
2018-02-18T06:16:37.411Z,32.03
2018-02-18T06:19:05.772Z,33.33
2018-02-18T06:21:33.358Z,33.87
2018-02-18T06:24:00.972Z,34.33
2018-02-18T06:26:28.562Z,33.53
2018-02-18T06:28:57.770Z,32.47
2018-02-18T06:31:26.127Z,35.50
2018-02-18T06:33:53.701Z,32.83
2018-02-18T06:36:22.028Z,34.83
2018-02-18T06:38:49.615Z,35.23
2018-02-18T06:41:17.179Z,35.08
2018-02-18T06:43:44.794Z,39.13
2018-02-18T06:46:12.366Z,37.35
2018-02-18T06:48:39.928Z,37.35
2018-02-18T06:51:07.518Z,37.13
2018-02-18T06:53:35.086Z,36.83
2018-02-18T06:56:02.679Z,36.50
2018-02-18T06:58:31.021Z,34.10
2018-02-18T07:00:58.579Z,34.30
2018-02-18T07:03:26.178Z,39.90
2018-02-18T07:05:53.746Z,38.80
2018-02-18T07:08:21.352Z,33.60
2018-02-18T07:10:48.923Z,33.57
2018-02-18T07:13:16.516Z,34.25
2018-02-18T07:15:44.864Z,34.20
2018-02-18T07:18:12.443Z,33.30
2018-02-18T07:20:40.027Z,34.00
2018-02-18T07:23:07.604Z,34.75
2018-02-18T07:25:35.181Z,34.63
2018-02-18T07:28:02.783Z,33.27
2018-02-18T07:30:30.389Z,32.30
2018-02-18T07:32:57.964Z,31.17
2018-02-18T07:35:26.300Z,34.03
2018-02-18T07:37:53.868Z,31.37
2018-02-18T07:40:22.212Z,29.37
2018-02-18T07:42:49.771Z,33.50
2018-02-18T07:45:17.354Z,34.10
2018-02-18T07:47:48.853Z,29.60
2018-02-18T07:50:19.534Z,33.07
2018-02-18T07:52:47.858Z,32.17
2018-02-18T07:55:15.439Z,31.80
2018-02-18T07:57:43.027Z,31.20
2018-02-18T08:00:10.585Z,32.27
2018-02-18T08:02:38.173Z,33.50
2018-02-18T08:05:05.735Z,30.70
2018-02-18T08:07:33.290Z,35.10
2018-02-18T08:10:01.630Z,33.00
2018-02-18T08:12:31.592Z,33.00
2018-02-18T08:14:59.942Z,32.93
2018-02-18T08:17:27.515Z,32.13
2018-02-18T08:19:55.827Z,33.70
2018-02-18T08:22:23.440Z,34.23
2018-02-18T08:24:50.986Z,35.50
2018-02-18T08:27:18.571Z,32.70
2018-02-18T08:29:46.911Z,36.60
2018-02-18T08:32:14.462Z,34.20
2018-02-18T08:34:42.039Z,32.53
2018-02-18T08:37:09.599Z,35.27
2018-02-18T08:39:37.183Z,32.67
2018-02-18T08:42:04.733Z,32.10
2018-02-18T08:44:32.322Z,33.40
2018-02-18T08:47:00.679Z,35.30
2018-02-18T08:49:28.247Z,35.70
2018-02-18T08:51:55.827Z,34.37
2018-02-18T08:54:24.148Z,31.10
2018-02-18T08:56:51.705Z,31.97
2018-02-18T08:59:22.850Z,32.00
2018-02-18T09:02:13.387Z,32.50
2018-02-18T09:04:51.669Z,30.80
2018-02-18T09:07:26.792Z,32.20
2018-02-18T09:09:54.371Z,30.60
2018-02-18T09:12:21.942Z,30.43
2018-02-18T09:15:02.498Z,30.43
2018-02-18T09:17:36.346Z,28.80
2018-02-18T09:20:04.683Z,29.20
2018-02-18T09:22:32.287Z,28.60
2018-02-18T09:25:00.611Z,24.03
2018-02-18T09:33:20.287Z,28.17
2018-02-18T09:35:48.599Z,28.13
2018-02-18T09:38:16.159Z,29.05
2018-02-18T09:40:43.749Z,27.55
2018-02-18T09:43:11.314Z,31.10
2018-02-18T09:45:39.796Z,27.80
2018-02-18T09:48:07.373Z,28.80
2018-02-18T09:53:51.910Z,28.20
2018-02-18T09:56:19.462Z,27.40
2018-02-18T09:58:47.037Z,26.13
2018-02-18T10:01:14.603Z,29.07
2018-02-18T10:03:42.163Z,24.47
2018-02-18T10:06:09.726Z,26.03
2018-02-18T10:08:37.302Z,26.60
2018-02-18T10:11:04.903Z,28.80
2018-02-18T10:13:32.459Z,26.98
2018-02-18T10:16:00.015Z,26.47
2018-02-18T10:18:29.033Z,28.67
2018-02-18T10:20:56.576Z,29.17
2018-02-18T10:23:24.158Z,26.67
2018-02-18T10:25:51.707Z,26.80
2018-02-18T10:28:19.271Z,28.70
2018-02-18T10:30:46.842Z,28.17
2018-02-18T10:33:14.387Z,30.03
2018-02-18T10:35:42.079Z,29.43
2018-02-18T10:38:09.629Z,29.40
2018-02-18T10:40:37.167Z,30.50
2018-02-18T10:43:04.734Z,29.73
2018-02-18T10:45:32.305Z,29.80
2018-02-18T10:48:00.713Z,30.77
2018-02-18T10:50:28.231Z,29.57
2018-02-18T10:52:55.784Z,29.17
2018-02-18T10:55:23.365Z,29.40
2018-02-18T10:57:50.903Z,27.57
2018-02-18T11:00:18.479Z,27.47
2018-02-18T11:02:46.015Z,29.63
2018-02-18T11:05:13.556Z,27.57
2018-02-18T11:07:41.115Z,30.00
2018-02-18T11:10:08.663Z,29.70
2018-02-18T11:12:36.239Z,28.80
2018-02-18T11:15:04.566Z,29.97
2018-02-18T11:17:32.131Z,30.20
2018-02-18T11:19:59.699Z,26.93
2018-02-18T11:22:27.239Z,27.60
2018-02-18T11:24:54.815Z,27.53
2018-02-18T11:27:23.281Z,30.10
2018-02-18T11:29:59.128Z,31.40
2018-02-18T11:32:26.688Z,30.97
2018-02-18T11:34:54.252Z,31.00
2018-02-18T11:37:23.788Z,29.50
2018-02-18T11:39:51.339Z,32.17
2018-02-18T11:42:19.666Z,30.57
2018-02-18T11:44:48.992Z,29.83
2018-02-18T11:47:16.576Z,30.50
2018-02-18T11:49:44.187Z,28.73
2018-02-18T11:52:13.511Z,27.87
2018-02-18T11:54:41.084Z,28.80
2018-02-18T11:57:14.445Z,26.50
2018-02-18T11:59:42.812Z,27.00
2018-02-18T12:02:11.759Z,28.87
2018-02-18T12:04:39.302Z,27.53
2018-02-18T12:07:10.672Z,28.40
2018-02-18T12:09:38.214Z,27.37
2018-02-18T12:12:05.780Z,27.97
2018-02-18T12:14:33.315Z,26.77
2018-02-18T12:17:01.633Z,27.77
2018-02-18T12:19:29.215Z,28.57
2018-02-18T12:21:56.759Z,27.20
2018-02-18T12:24:24.355Z,29.30
2018-02-18T12:26:52.664Z,27.80
2018-02-18T12:29:20.205Z,28.20
2018-02-18T12:31:48.723Z,25.30
2018-02-18T12:34:16.315Z,24.57
2018-02-18T12:36:44.651Z,29.00
2018-02-18T12:39:12.200Z,23.87
2018-02-18T12:41:39.746Z,21.90
2018-02-18T12:44:08.079Z,24.80
2018-02-18T12:46:35.639Z,24.07
2018-02-18T12:49:03.219Z,25.10
2018-02-18T12:51:30.768Z,20.77
2018-02-18T12:53:58.310Z,23.80
2018-02-18T12:56:25.871Z,24.83
2018-02-18T12:58:53.430Z,21.43
2018-02-18T13:01:21.006Z,19.70
2018-02-18T13:03:48.548Z,21.20
2018-02-18T13:06:26.352Z,20.90
2018-02-18T13:08:54.660Z,23.00
2018-02-18T13:11:22.205Z,24.03
2018-02-18T13:13:49.783Z,23.90
2018-02-18T13:16:21.592Z,23.20
2018-02-18T13:18:49.175Z,22.50
2018-02-18T13:21:16.726Z,23.70
2018-02-18T13:29:42.321Z,22.97
2018-02-18T13:32:09.860Z,20.27
2018-02-18T13:34:37.403Z,22.63
2018-02-18T13:37:04.978Z,21.90
2018-02-18T13:39:34.551Z,19.83
2018-02-18T13:42:02.091Z,22.20
2018-02-18T13:44:30.435Z,20.83
2018-02-18T13:47:01.537Z,20.53
2018-02-18T13:49:29.090Z,21.47
2018-02-18T13:51:57.583Z,21.60
2018-02-18T13:54:25.133Z,20.47
2018-02-18T13:57:05.897Z,19.50
2018-02-18T13:59:38.174Z,18.47
2018-02-18T14:02:25.338Z,20.60
2018-02-18T14:04:52.926Z,22.13
2018-02-18T14:07:21.236Z,21.80
2018-02-18T14:09:48.814Z,20.10
2018-02-18T14:12:23.902Z,22.47
2018-02-18T14:15:11.708Z,21.30
2018-02-18T14:17:39.261Z,21.90
2018-02-18T14:20:06.808Z,21.70
2018-02-18T14:22:38.053Z,19.97
2018-02-18T14:25:05.591Z,21.23
2018-02-18T14:27:33.175Z,20.70
2018-02-18T14:30:07.843Z,20.00
2018-02-18T14:32:35.424Z,17.90
2018-02-18T14:35:03.735Z,18.87
2018-02-18T14:37:31.296Z,17.67
2018-02-18T14:40:15.598Z,19.10
2018-02-18T14:42:55.756Z,19.43
2018-02-18T14:45:35.941Z,22.20
2018-02-18T14:48:17.669Z,21.10
2018-02-18T14:50:57.874Z,20.10
2018-02-18T14:53:37.935Z,22.30
2018-02-18T14:56:17.257Z,21.30
2018-02-18T14:58:45.581Z,22.70
2018-02-18T15:01:13.136Z,20.20
2018-02-18T15:03:40.993Z,20.67
2018-02-18T15:06:08.558Z,22.10
2018-02-18T15:08:36.161Z,20.13
2018-02-18T15:11:07.559Z,21.40
2018-02-18T15:13:41.183Z,21.30
2018-02-18T15:16:26.680Z,22.83
2018-02-18T15:19:08.300Z,21.90
2018-02-18T15:21:36.628Z,22.83
2018-02-18T15:24:04.188Z,21.00
2018-02-18T15:26:31.784Z,21.07
2018-02-18T15:31:57.910Z,21.63
2018-02-18T15:34:28.819Z,23.10
2018-02-18T15:36:56.355Z,23.97
2018-02-18T15:39:24.718Z,23.47
2018-02-18T15:41:52.719Z,25.10
2018-02-18T15:44:20.404Z,24.10
2018-02-18T15:46:47.951Z,25.37
2018-02-18T15:49:15.489Z,24.50
2018-02-18T15:51:43.815Z,24.93
2018-02-18T15:54:11.379Z,24.73
2018-02-18T15:56:45.064Z,25.50
2018-02-18T15:59:12.604Z,24.63
2018-02-18T16:01:40.143Z,23.00
2018-02-18T16:04:12.680Z,25.97
2018-02-18T16:06:40.227Z,24.13
2018-02-18T16:09:11.163Z,24.70
2018-02-18T16:11:55.429Z,26.23
2018-02-18T16:14:23.007Z,25.27
2018-02-18T16:16:50.555Z,26.27
2018-02-18T16:19:18.116Z,28.63
2018-02-18T16:21:45.696Z,26.50
2018-02-18T16:24:13.271Z,26.60
2018-02-18T16:26:41.598Z,27.47
2018-02-18T16:29:09.276Z,26.70
2018-02-18T16:31:37.600Z,26.87
2018-02-18T16:34:05.935Z,25.00
2018-02-18T16:36:35.515Z,25.93
2018-02-18T16:39:03.062Z,27.30
2018-02-18T16:41:30.631Z,25.40
2018-02-18T16:43:58.255Z,25.33
2018-02-18T16:46:26.598Z,26.57
2018-02-18T16:48:54.518Z,23.50
2018-02-18T16:51:22.377Z,25.13
2018-02-18T16:53:50.748Z,24.43
2018-02-18T16:56:19.067Z,25.73
2018-02-18T16:58:46.698Z,26.97
2018-02-18T17:01:16.952Z,28.87
2018-02-18T17:03:46.495Z,26.97
2018-02-18T17:06:19.618Z,31.40
2018-02-18T17:08:47.959Z,28.20
2018-02-18T17:11:15.522Z,27.90
2018-02-18T17:13:44.700Z,37.77
2018-02-18T17:16:12.284Z,32.53
2018-02-18T17:18:39.832Z,27.73
2018-02-18T17:21:07.428Z,28.20
2018-02-18T17:23:35.763Z,29.33
2018-02-18T17:26:03.346Z,27.37
2018-02-18T17:28:37.722Z,28.97
2018-02-18T17:31:05.278Z,29.00
2018-02-18T17:33:32.860Z,28.47
2018-02-18T17:36:00.434Z,32.97
2018-02-18T17:38:28.003Z,27.90
2018-02-18T17:40:55.606Z,32.10
2018-02-18T17:43:23.941Z,31.80
2018-02-18T17:45:51.532Z,31.27
2018-02-18T17:48:19.107Z,29.97
2018-02-18T17:50:47.436Z,29.83
2018-02-18T17:53:15.590Z,35.50
2018-02-18T17:55:43.155Z,31.13
2018-02-18T17:58:12.676Z,33.67
2018-02-18T18:00:40.247Z,28.90
2018-02-18T18:03:07.795Z,37.73
2018-02-18T18:05:35.358Z,32.07
2018-02-18T18:08:02.898Z,30.40
2018-02-18T18:10:30.476Z,30.87
2018-02-18T18:12:58.799Z,29.80
2018-02-18T18:15:27.111Z,33.43
2018-02-18T18:17:54.699Z,35.20
2018-02-18T18:20:23.017Z,46.70
2018-02-18T18:22:51.352Z,33.27
2018-02-18T18:25:19.667Z,26.30
2018-02-18T18:27:48.718Z,31.37
2018-02-18T18:30:16.634Z,31.80
2018-02-18T18:32:44.958Z,35.85
2018-02-18T18:35:19.278Z,57.50
2018-02-18T18:37:46.834Z,32.77
2018-02-18T18:40:14.389Z,33.40
2018-02-18T18:42:41.993Z,28.93
2018-02-18T18:45:09.555Z,34.73
2018-02-18T18:47:37.146Z,28.40
2018-02-18T18:50:05.464Z,31.97
2018-02-18T18:52:39.648Z,29.63
2018-02-18T18:55:11.309Z,33.65
2018-02-18T18:57:38.880Z,32.53
2018-02-18T19:00:06.444Z,33.30
2018-02-18T19:02:33.991Z,32.17
2018-02-18T19:05:01.593Z,37.90
2018-02-18T19:07:29.163Z,35.65
2018-02-18T19:09:56.748Z,31.20
2018-02-18T19:12:25.073Z,33.50
2018-02-18T19:14:52.624Z,32.03
2018-02-18T19:17:20.192Z,33.15
2018-02-18T19:19:47.748Z,32.33
2018-02-18T19:22:15.331Z,33.80
2018-02-18T19:24:42.891Z,35.70
2018-02-18T19:27:11.473Z,32.13
2018-02-18T19:29:39.162Z,33.08
2018-02-18T19:32:06.726Z,33.97
2018-02-18T19:34:35.072Z,33.60
2018-02-18T19:37:02.884Z,32.17
2018-02-18T19:39:31.196Z,30.50
2018-02-18T19:41:58.794Z,33.53
2018-02-18T19:44:26.359Z,29.17
2018-02-18T19:47:05.381Z,31.53
2018-02-18T19:49:33.455Z,31.07
2018-02-18T19:52:01.023Z,32.20
2018-02-18T19:54:28.595Z,30.17
2018-02-18T19:56:56.914Z,28.43
2018-02-18T19:59:24.480Z,30.10
2018-02-18T20:01:52.874Z,29.40
2018-02-18T20:04:21.254Z,29.67
2018-02-18T20:06:48.827Z,27.77
2018-02-18T20:09:31.849Z,29.63
2018-02-18T20:12:06.432Z,28.17
2018-02-18T20:14:33.990Z,29.77
2018-02-18T20:17:01.556Z,30.17
2018-02-18T20:19:29.135Z,29.97
2018-02-18T20:21:56.797Z,30.27
2018-02-18T20:24:24.383Z,29.27
2018-02-18T20:26:51.930Z,28.27
2018-02-18T20:29:19.491Z,29.30
2018-02-18T20:31:47.082Z,31.73
2018-02-18T20:34:15.403Z,32.00
2018-02-18T20:36:42.992Z,28.70
2018-02-18T20:39:15.377Z,29.20
2018-02-18T20:41:42.919Z,26.77
2018-02-18T20:44:10.473Z,24.77
2018-02-18T20:46:38.049Z,25.63
2018-02-18T20:49:05.611Z,24.53
2018-02-18T20:51:33.739Z,22.83
2018-02-18T20:54:02.329Z,23.77
2018-02-18T20:56:32.345Z,24.17
2018-02-18T20:58:59.933Z,24.97
2018-02-18T21:01:27.502Z,23.87
2018-02-18T21:03:55.046Z,22.97
2018-02-18T21:06:22.615Z,23.20
2018-02-18T21:08:50.195Z,19.77
2018-02-18T21:11:17.731Z,22.07
2018-02-18T21:13:45.296Z,20.80
2018-02-18T21:16:18.473Z,19.47
2018-02-18T21:18:46.043Z,20.77
2018-02-18T21:21:13.589Z,19.60
2018-02-18T21:23:41.505Z,19.37
2018-02-18T21:26:09.071Z,20.53
2018-02-18T21:28:36.855Z,20.77
2018-02-18T21:31:04.583Z,19.80
2018-02-18T21:33:32.128Z,19.80
2018-02-18T21:35:59.695Z,19.20
2018-02-18T21:38:27.295Z,20.60
2018-02-18T21:40:55.600Z,21.60
2018-02-18T21:43:23.178Z,24.30
2018-02-18T21:45:50.726Z,29.70
2018-02-18T21:48:29.850Z,21.37
2018-02-18T21:50:57.392Z,21.77
2018-02-18T21:53:25.714Z,20.43
2018-02-18T21:55:53.287Z,22.60
2018-02-18T21:58:20.843Z,34.43
2018-02-18T22:00:48.439Z,23.80
2018-02-18T22:03:16.759Z,25.00
2018-02-18T22:05:44.313Z,24.50
2018-02-18T22:08:11.895Z,24.33
2018-02-18T22:10:39.446Z,24.70
2018-02-18T22:13:07.023Z,23.90
2018-02-18T22:15:34.575Z,24.30
2018-02-18T22:18:02.123Z,23.53
2018-02-18T22:20:29.702Z,24.37
2018-02-18T22:22:57.248Z,24.13
2018-02-18T22:25:24.843Z,22.40
2018-02-18T22:27:52.391Z,25.10
2018-02-18T22:30:19.940Z,24.20
2018-02-18T22:32:47.514Z,22.90
2018-02-18T22:35:15.062Z,20.83
2018-02-18T22:37:42.643Z,23.50
2018-02-18T22:40:10.198Z,22.90
2018-02-18T22:42:37.743Z,22.23
2018-02-18T22:45:05.347Z,22.47
2018-02-18T22:47:33.660Z,20.50
2018-02-18T22:50:01.251Z,23.00
2018-02-18T22:52:28.804Z,22.60
2018-02-18T22:54:56.363Z,20.80
2018-02-18T22:57:23.949Z,20.60
2018-02-18T22:59:51.497Z,21.07
2018-02-18T23:02:19.089Z,24.40
2018-02-18T23:04:47.401Z,21.60
2018-02-18T23:07:19.176Z,20.43
2018-02-18T23:09:47.484Z,19.50
2018-02-18T23:12:15.033Z,19.63
2018-02-18T23:14:42.619Z,20.53
2018-02-18T23:17:11.040Z,21.30
2018-02-18T23:19:38.618Z,20.00
2018-02-18T23:22:06.155Z,21.47
2018-02-18T23:24:33.695Z,21.13
2018-02-18T23:27:01.250Z,21.13
2018-02-18T23:29:29.552Z,19.43
2018-02-18T23:31:57.122Z,18.73
2018-02-18T23:34:24.673Z,20.47
2018-02-18T23:36:52.215Z,20.30
2018-02-18T23:39:19.783Z,19.90
2018-02-18T23:41:47.326Z,20.00
2018-02-18T23:44:15.673Z,20.83
2018-02-18T23:46:43.219Z,20.67
2018-02-18T23:49:10.763Z,20.23
2018-02-18T23:51:38.331Z,20.20
2018-02-18T23:54:05.883Z,20.70
2018-02-18T23:56:33.479Z,19.50
2018-02-18T23:59:01.083Z,18.93
